Time;durP1;ratioP1;P1;durP2;ratioP2;P2;SDS_P1;SDS_P2;PMS_P1;PMS_P2;Temp;Humidity;BMP_temperature;BMP_pressure;BME280_temperature;BME280_humidity;BME280_pressure;Samples;Min_cycle;Max_cycle;Signal;HPM_P1;HPM_P2
2024/04/01 00:00:02;;;;;;;42.78;32.00;;;;;;;;;;5072989;28;20184;-73
2024/04/01 00:02:28;;;;;;;43.83;31.15;;;;;;;;;;5077932;28;20317;-73
2024/04/01 00:04:54;;;;;;;45.80;32.20;;;;;;;;;;5085342;28;20271;-73
2024/04/01 00:07:19;;;;;;;46.08;31.42;;;;;;;;;;5074917;28;20283;-73
2024/04/01 00:09:46;;;;;;;43.13;30.08;;;;;;;;;;5089645;28;20565;-73
2024/04/01 00:12:12;;;;;;;43.72;29.67;;;;;;;;;;5076063;28;20574;-73
2024/04/01 00:14:37;;;;;;;42.92;30.10;;;;;;;;;;5078854;28;20558;-73
2024/04/01 00:17:03;;;;;;;45.33;31.60;;;;;;;;;;5084776;28;20274;-73
2024/04/01 00:19:28;;;;;;;43.28;31.25;;;;;;;;;;5082596;28;20209;-73
2024/04/01 00:21:54;;;;;;;45.85;32.92;;;;;;;;;;5073276;28;20217;-72
2024/04/01 00:24:19;;;;;;;43.50;30.13;;;;;;;;;;5084687;28;20210;-72
2024/04/01 00:26:45;;;;;;;44.75;31.15;;;;;;;;;;5084011;28;20188;-72
2024/04/01 00:29:10;;;;;;;44.90;30.95;;;;;;;;;;5086141;28;20685;-72
2024/04/01 00:31:36;;;;;;;47.63;30.85;;;;;;;;;;5076161;28;20231;-72
2024/04/01 00:34:01;;;;;;;49.95;30.88;;;;;;;;;;5083534;28;20716;-72
2024/04/01 00:36:26;;;;;;;45.45;28.85;;;;;;;;;;5069259;28;20362;-72
2024/04/01 00:38:55;;;;;;;43.78;28.42;;;;;;;;;;5088557;28;20228;-72
2024/04/01 00:41:26;;;;;;;42.63;28.05;;;;;;;;;;5068706;28;20188;-72
2024/04/01 00:43:54;;;;;;;44.67;27.98;;;;;;;;;;5078997;28;20183;-72
2024/04/01 00:46:21;;;;;;;43.05;28.52;;;;;;;;;;5085318;28;20254;-72
2024/04/01 00:48:49;;;;;;;41.90;27.42;;;;;;;;;;5079215;28;20224;-72
2024/04/01 00:51:16;;;;;;;37.45;26.13;;;;;;;;;;5069298;28;20193;-72
2024/04/01 00:53:42;;;;;;;37.65;25.58;;;;;;;;;;5087951;28;20218;-72
2024/04/01 00:56:07;;;;;;;38.97;25.58;;;;;;;;;;5080794;28;20223;-73
2024/04/01 00:58:33;;;;;;;39.58;26.08;;;;;;;;;;5078969;28;20631;-72
2024/04/01 01:00:59;;;;;;;45.55;30.50;;;;;;;;;;5066401;28;20185;-72
2024/04/01 01:03:25;;;;;;;39.17;27.17;;;;;;;;;;5081793;28;20554;-73
2024/04/01 01:05:51;;;;;;;40.25;26.00;;;;;;;;;;5070316;28;20227;-72
2024/04/01 01:08:16;;;;;;;44.53;26.13;;;;;;;;;;5068722;28;20218;-72
2024/04/01 01:10:42;;;;;;;38.13;27.67;;;;;;;;;;5081690;28;20235;-73
2024/04/01 01:13:07;;;;;;;40.83;26.17;;;;;;;;;;5079972;28;20253;-72
2024/04/01 01:15:33;;;;;;;41.40;26.95;;;;;;;;;;5066749;28;20189;-72
2024/04/01 01:17:59;;;;;;;39.97;26.85;;;;;;;;;;5080599;28;20194;-73
2024/04/01 01:20:25;;;;;;;41.10;27.60;;;;;;;;;;5086501;28;20667;-72
2024/04/01 01:22:50;;;;;;;37.60;28.35;;;;;;;;;;5084800;28;20262;-72
2024/04/01 01:25:16;;;;;;;36.28;27.70;;;;;;;;;;5086957;28;20275;-72
2024/04/01 01:27:42;;;;;;;39.63;29.33;;;;;;;;;;5069546;28;20184;-72
2024/04/01 01:30:15;;;;;;;39.60;28.25;;;;;;;;;;5067367;28;20189;-72
2024/04/01 01:32:51;;;;;;;37.20;26.90;;;;;;;;;;5069350;28;20180;-72
2024/04/01 01:35:22;;;;;;;38.78;26.45;;;;;;;;;;5073128;28;20658;-72
2024/04/01 01:37:49;;;;;;;37.92;26.73;;;;;;;;;;5084230;28;20635;-72
2024/04/01 01:40:14;;;;;;;40.50;26.48;;;;;;;;;;5080532;28;20306;-73
2024/04/01 01:42:40;;;;;;;37.58;27.08;;;;;;;;;;5073186;28;20660;-72
2024/04/01 01:45:06;;;;;;;38.10;25.15;;;;;;;;;;5063050;28;20191;-72
2024/04/01 01:47:32;;;;;;;38.28;26.00;;;;;;;;;;5071623;28;20223;-72
2024/04/01 01:49:59;;;;;;;37.28;24.40;;;;;;;;;;5082797;28;20667;-72
2024/04/01 01:52:24;;;;;;;42.55;24.50;;;;;;;;;;5081379;28;20207;-72
2024/04/01 01:54:50;;;;;;;41.15;25.45;;;;;;;;;;5081180;28;20652;-72
2024/04/01 01:57:15;;;;;;;33.47;23.48;;;;;;;;;;5067003;28;20227;-73
2024/04/01 01:59:41;;;;;;;39.05;23.42;;;;;;;;;;5073633;28;20211;-72
2024/04/01 02:02:06;;;;;;;32.67;22.40;;;;;;;;;;5071767;28;20352;-72
2024/04/01 02:04:31;;;;;;;31.73;21.42;;;;;;;;;;5076903;28;20248;-72
2024/04/01 02:06:57;;;;;;;28.55;20.20;;;;;;;;;;5086854;28;20258;-71
2024/04/01 02:09:23;;;;;;;36.13;20.92;;;;;;;;;;5076837;28;20195;-72
2024/04/01 02:11:48;;;;;;;29.73;20.73;;;;;;;;;;5077358;28;20196;-72
2024/04/01 02:14:13;;;;;;;27.88;19.38;;;;;;;;;;5089632;28;20191;-72
2024/04/01 02:16:39;;;;;;;28.25;21.05;;;;;;;;;;5087556;28;20640;-71
2024/04/01 02:19:04;;;;;;;35.83;20.17;;;;;;;;;;5087229;28;20717;-72
2024/04/01 02:21:30;;;;;;;31.52;20.35;;;;;;;;;;5080852;28;20195;-71
2024/04/01 02:23:55;;;;;;;34.25;20.25;;;;;;;;;;5077507;28;20184;-71
2024/04/01 02:26:20;;;;;;;31.88;19.27;;;;;;;;;;5086235;28;20589;-72
2024/04/01 02:28:46;;;;;;;34.28;19.67;;;;;;;;;;5078393;28;20189;-72
2024/04/01 02:31:11;;;;;;;28.90;18.08;;;;;;;;;;5074135;28;20206;-73
2024/04/01 02:33:37;;;;;;;29.30;18.02;;;;;;;;;;5094439;28;20262;-73
2024/04/01 02:36:02;;;;;;;26.77;16.63;;;;;;;;;;5088675;28;20198;-73
2024/04/01 02:38:27;;;;;;;24.77;16.10;;;;;;;;;;5071176;28;20232;-73
2024/04/01 02:40:53;;;;;;;25.75;15.15;;;;;;;;;;5084671;28;20187;-73
2024/04/01 02:43:18;;;;;;;30.08;16.38;;;;;;;;;;5084768;28;20625;-73
2024/04/01 02:45:44;;;;;;;24.67;15.57;;;;;;;;;;5070740;28;20287;-73
2024/04/01 02:48:10;;;;;;;24.33;15.75;;;;;;;;;;5083137;28;20202;-73
2024/04/01 02:50:35;;;;;;;24.95;15.07;;;;;;;;;;5089862;28;20184;-72
2024/04/01 02:53:01;;;;;;;25.27;14.65;;;;;;;;;;5062873;28;20264;-72
2024/04/01 02:55:27;;;;;;;20.77;13.63;;;;;;;;;;5071653;28;20663;-72
2024/04/01 02:57:52;;;;;;;19.20;14.10;;;;;;;;;;5076287;28;20270;-72
2024/04/01 03:00:18;;;;;;;24.20;13.60;;;;;;;;;;5090795;28;20261;-73
2024/04/01 03:02:46;;;;;;;22.92;14.82;;;;;;;;;;5083357;28;20212;-73
2024/04/01 03:05:13;;;;;;;25.10;15.82;;;;;;;;;;5063867;28;20183;-73
2024/04/01 03:07:39;;;;;;;22.77;16.52;;;;;;;;;;5088503;28;20237;-73
2024/04/01 03:10:06;;;;;;;23.88;16.25;;;;;;;;;;5070917;28;20267;-73
2024/04/01 03:12:32;;;;;;;27.45;16.63;;;;;;;;;;5090826;28;20263;-73
2024/04/01 03:14:57;;;;;;;28.30;15.35;;;;;;;;;;5079706;28;20743;-73
2024/04/01 03:17:23;;;;;;;25.17;15.43;;;;;;;;;;5076187;28;20260;-73
2024/04/01 03:19:49;;;;;;;23.77;13.93;;;;;;;;;;5079745;28;20235;-73
2024/04/01 03:22:14;;;;;;;22.25;14.20;;;;;;;;;;5071739;28;20528;-73
2024/04/01 03:24:40;;;;;;;22.00;14.05;;;;;;;;;;5079378;28;20192;-73
2024/04/01 03:27:06;;;;;;;25.25;13.65;;;;;;;;;;5086446;28;20538;-73
2024/04/01 03:29:31;;;;;;;22.35;13.75;;;;;;;;;;5082901;28;20296;-73
2024/04/01 03:31:56;;;;;;;19.70;14.07;;;;;;;;;;5094891;28;20573;-73
2024/04/01 03:34:22;;;;;;;26.15;14.85;;;;;;;;;;5120195;27;20187;-73
2024/04/01 03:36:51;;;;;;;26.55;14.63;;;;;;;;;;5089810;28;20370;-74
2024/04/01 03:39:18;;;;;;;23.83;14.88;;;;;;;;;;5079131;28;20659;-73
2024/04/01 03:41:44;;;;;;;27.27;16.23;;;;;;;;;;5081000;28;20237;-73
2024/04/01 03:44:09;;;;;;;26.33;15.93;;;;;;;;;;5085591;28;20204;-73
2024/04/01 03:46:35;;;;;;;26.15;16.90;;;;;;;;;;5088535;28;20194;-73
2024/04/01 03:49:00;;;;;;;28.65;16.58;;;;;;;;;;5088556;28;20184;-73
2024/04/01 03:51:25;;;;;;;27.73;16.55;;;;;;;;;;5080093;28;20181;-73
2024/04/01 03:53:51;;;;;;;26.92;15.50;;;;;;;;;;5086553;28;20198;-73
2024/04/01 03:56:16;;;;;;;25.25;16.35;;;;;;;;;;5087146;28;20207;-73
2024/04/01 03:58:42;;;;;;;22.27;15.57;;;;;;;;;;5088329;28;20196;-73
2024/04/01 04:01:07;;;;;;;25.92;16.30;;;;;;;;;;5089162;28;20397;-73
2024/04/01 04:03:32;;;;;;;21.92;14.60;;;;;;;;;;5077155;28;20230;-73
2024/04/01 04:05:58;;;;;;;25.63;15.82;;;;;;;;;;5082643;28;20628;-73
2024/04/01 04:08:23;;;;;;;25.88;16.58;;;;;;;;;;5070983;28;20231;-72
2024/04/01 04:10:49;;;;;;;26.27;16.00;;;;;;;;;;5083311;28;20263;-72
2024/04/01 04:13:15;;;;;;;23.67;15.88;;;;;;;;;;5087240;28;20686;-72
2024/04/01 04:15:40;;;;;;;26.88;16.30;;;;;;;;;;5086408;28;20485;-73
2024/04/01 04:18:05;;;;;;;25.98;15.95;;;;;;;;;;5088593;28;20558;-72
2024/04/01 04:20:31;;;;;;;24.33;16.35;;;;;;;;;;5084776;28;20188;-72
2024/04/01 04:22:56;;;;;;;24.08;15.98;;;;;;;;;;5080807;28;20303;-72
2024/04/01 04:25:22;;;;;;;25.48;17.38;;;;;;;;;;5077127;28;20184;-72
2024/04/01 04:27:47;;;;;;;24.13;16.48;;;;;;;;;;5081982;28;20196;-72
2024/04/01 04:30:13;;;;;;;30.27;18.35;;;;;;;;;;5071499;28;20184;-71
2024/04/01 04:32:43;;;;;;;28.25;17.48;;;;;;;;;;5075212;28;20191;-71
2024/04/01 04:35:09;;;;;;;28.48;18.30;;;;;;;;;;5087884;28;20192;-71
2024/04/01 04:37:37;;;;;;;32.13;18.30;;;;;;;;;;5088025;28;20257;-72
2024/04/01 04:40:04;;;;;;;27.75;17.83;;;;;;;;;;5083009;28;20184;-72
2024/04/01 04:42:30;;;;;;;27.58;17.70;;;;;;;;;;5094835;28;20246;-72
2024/04/01 04:44:55;;;;;;;26.80;17.70;;;;;;;;;;5076607;28;20200;-71
2024/04/01 04:47:20;;;;;;;30.13;19.50;;;;;;;;;;5071054;28;20208;-71
2024/04/01 04:49:47;;;;;;;25.98;17.98;;;;;;;;;;5084173;28;20618;-71
2024/04/01 04:52:13;;;;;;;31.75;18.08;;;;;;;;;;5087599;28;20180;-72
2024/04/01 04:54:38;;;;;;;25.48;16.58;;;;;;;;;;5086681;28;20696;-72
2024/04/01 04:57:04;;;;;;;29.98;17.98;;;;;;;;;;5087300;28;20217;-72
2024/04/01 04:59:29;;;;;;;26.42;17.30;;;;;;;;;;5068402;28;20188;-71
2024/04/01 05:01:54;;;;;;;27.88;18.63;;;;;;;;;;5087300;28;20241;-72
2024/04/01 05:04:20;;;;;;;26.35;17.42;;;;;;;;;;5071349;28;20180;-72
2024/04/01 05:06:45;;;;;;;26.92;16.88;;;;;;;;;;5083558;28;20204;-72
2024/04/01 05:09:11;;;;;;;26.08;17.02;;;;;;;;;;5068287;28;20263;-72
2024/04/01 05:11:36;;;;;;;32.42;18.73;;;;;;;;;;5090623;28;20187;-72
2024/04/01 05:14:05;;;;;;;26.63;18.55;;;;;;;;;;5087736;28;20183;-72
2024/04/01 05:16:30;;;;;;;29.92;19.35;;;;;;;;;;5087735;28;20196;-72
2024/04/01 05:18:56;;;;;;;30.83;20.95;;;;;;;;;;5083730;28;20546;-72
2024/04/01 05:21:22;;;;;;;32.42;20.48;;;;;;;;;;5066966;28;20271;-72
2024/04/01 05:23:52;;;;;;;30.85;19.65;;;;;;;;;;5067278;28;20211;-72
2024/04/01 05:26:18;;;;;;;27.33;19.52;;;;;;;;;;5076791;28;20180;-72
2024/04/01 05:28:43;;;;;;;28.02;19.35;;;;;;;;;;5071684;28;20613;-73
2024/04/01 05:31:09;;;;;;;32.58;19.42;;;;;;;;;;5080426;28;20269;-72
2024/04/01 05:33:34;;;;;;;34.95;20.00;;;;;;;;;;5088405;28;20192;-72
2024/04/01 05:36:02;;;;;;;31.77;20.40;;;;;;;;;;5068815;28;20217;-72
2024/04/01 05:38:28;;;;;;;38.50;20.50;;;;;;;;;;5077963;28;20227;-72
2024/04/01 05:40:53;;;;;;;30.45;19.65;;;;;;;;;;5077420;28;20634;-72
2024/04/01 05:43:19;;;;;;;31.88;20.83;;;;;;;;;;5088162;28;20263;-72
2024/04/01 05:45:44;;;;;;;35.50;21.23;;;;;;;;;;5082648;28;20192;-72
2024/04/01 05:48:10;;;;;;;32.97;21.33;;;;;;;;;;5080515;28;20188;-72
2024/04/01 05:50:35;;;;;;;29.77;20.73;;;;;;;;;;5082587;28;20196;-72
2024/04/01 05:53:00;;;;;;;31.90;21.48;;;;;;;;;;5055612;28;20184;-72
2024/04/01 05:55:26;;;;;;;28.75;21.13;;;;;;;;;;5067512;28;20189;-72
2024/04/01 05:57:51;;;;;;;31.13;22.70;;;;;;;;;;5070635;28;20554;-72
2024/04/01 06:00:17;;;;;;;31.35;22.02;;;;;;;;;;5072601;28;20193;-72
2024/04/01 06:02:42;;;;;;;35.35;22.42;;;;;;;;;;5081346;28;20221;-72
2024/04/01 06:05:07;;;;;;;33.53;23.08;;;;;;;;;;5075379;28;20652;-72
2024/04/01 06:07:33;;;;;;;35.08;23.75;;;;;;;;;;5076956;28;20215;-72
2024/04/01 06:09:59;;;;;;;33.97;23.77;;;;;;;;;;5086979;28;20192;-72
2024/04/01 06:12:28;;;;;;;35.17;22.55;;;;;;;;;;5083869;28;20659;-72
2024/04/01 06:14:53;;;;;;;33.08;22.98;;;;;;;;;;5079354;28;20629;-72
2024/04/01 06:17:19;;;;;;;37.90;24.60;;;;;;;;;;5087327;28;20187;-72
2024/04/01 06:19:45;;;;;;;39.92;26.10;;;;;;;;;;5093310;28;20597;-72
2024/04/01 06:22:10;;;;;;;37.70;22.83;;;;;;;;;;5087570;28;20212;-72
2024/04/01 06:24:36;;;;;;;28.95;21.00;;;;;;;;;;5084426;28;20227;-72
2024/04/01 06:27:02;;;;;;;33.75;22.08;;;;;;;;;;5079842;28;20275;-71
2024/04/01 06:29:28;;;;;;;30.67;21.38;;;;;;;;;;5086598;28;20188;-71
2024/04/01 06:31:53;;;;;;;33.00;21.20;;;;;;;;;;5072716;28;20189;-71
2024/04/01 06:34:19;;;;;;;29.20;20.55;;;;;;;;;;5083917;28;20199;-71
2024/04/01 06:36:45;;;;;;;30.17;20.75;;;;;;;;;;5085724;28;20190;-72
2024/04/01 06:39:10;;;;;;;30.80;20.80;;;;;;;;;;5084172;28;20321;-72
2024/04/01 06:41:36;;;;;;;31.73;21.05;;;;;;;;;;5079811;28;20729;-72
2024/04/01 06:44:02;;;;;;;27.20;20.70;;;;;;;;;;5089266;28;20317;-72
2024/04/01 06:46:27;;;;;;;30.17;20.08;;;;;;;;;;5088419;28;20250;-72
2024/04/01 06:48:53;;;;;;;34.25;19.73;;;;;;;;;;5086407;28;20192;-72
2024/04/01 06:51:18;;;;;;;26.05;19.25;;;;;;;;;;5083414;28;20258;-72
2024/04/01 06:53:44;;;;;;;27.77;18.95;;;;;;;;;;5062586;28;20297;-72
2024/04/01 06:56:10;;;;;;;31.35;19.23;;;;;;;;;;5086288;28;20184;-71
2024/04/01 06:58:36;;;;;;;31.98;20.83;;;;;;;;;;5084964;28;20804;-71
2024/04/01 07:01:01;;;;;;;27.83;19.35;;;;;;;;;;5070132;28;20185;-71
2024/04/01 07:03:26;;;;;;;25.58;19.20;;;;;;;;;;5079736;28;20277;-71
2024/04/01 07:05:52;;;;;;;27.35;18.70;;;;;;;;;;5084344;28;20199;-71
2024/04/01 07:08:18;;;;;;;26.70;19.92;;;;;;;;;;5078646;28;20185;-71
2024/04/01 07:10:43;;;;;;;28.02;18.60;;;;;;;;;;5073425;28;20189;-71
2024/04/01 07:13:08;;;;;;;26.30;19.40;;;;;;;;;;5080535;28;20623;-71
2024/04/01 07:15:34;;;;;;;27.70;18.50;;;;;;;;;;5057969;28;20554;-72
2024/04/01 07:18:00;;;;;;;24.60;18.33;;;;;;;;;;5090749;28;20192;-72
2024/04/01 07:20:26;;;;;;;27.30;19.30;;;;;;;;;;5084957;28;20664;-71
2024/04/01 07:22:51;;;;;;;25.02;18.50;;;;;;;;;;5081645;28;20335;-71
2024/04/01 07:25:17;;;;;;;28.58;18.23;;;;;;;;;;5080561;28;20219;-71
2024/04/01 07:27:43;;;;;;;30.27;18.23;;;;;;;;;;5072409;28;20189;-72
2024/04/01 07:30:09;;;;;;;27.15;17.40;;;;;;;;;;5102189;28;20215;-71
2024/04/01 07:32:35;;;;;;;26.20;16.75;;;;;;;;;;5077669;28;20188;-72
2024/04/01 07:35:01;;;;;;;24.52;15.90;;;;;;;;;;5081177;28;20183;-72
2024/04/01 07:37:27;;;;;;;24.65;16.98;;;;;;;;;;5066240;28;20594;-72
2024/04/01 07:39:56;;;;;;;27.60;16.52;;;;;;;;;;5068304;28;20180;-72
2024/04/01 07:42:22;;;;;;;25.42;15.30;;;;;;;;;;5088463;28;20223;-72
2024/04/01 07:44:49;;;;;;;28.50;17.55;;;;;;;;;;5082061;28;20196;-73
2024/04/01 07:47:15;;;;;;;25.15;17.15;;;;;;;;;;5082637;28;20660;-73
2024/04/01 07:49:40;;;;;;;26.02;16.75;;;;;;;;;;5076183;28;20199;-74
2024/04/01 07:52:07;;;;;;;29.35;18.45;;;;;;;;;;5086656;28;20285;-74
2024/04/01 07:54:33;;;;;;;19.42;14.68;;;;;;;;;;5079962;28;20188;-74
2024/04/01 07:57:02;;;;;;;21.05;15.02;;;;;;;;;;5089518;28;20706;-75
2024/04/01 07:59:30;;;;;;;24.15;16.13;;;;;;;;;;5071052;28;20207;-75
2024/04/01 08:01:56;;;;;;;17.67;13.13;;;;;;;;;;5084234;28;20261;-75
2024/04/01 08:04:25;;;;;;;19.52;14.05;;;;;;;;;;5078559;28;20803;-75
2024/04/01 08:06:50;;;;;;;22.52;14.95;;;;;;;;;;5072082;28;20394;-75
2024/04/01 08:09:16;;;;;;;18.63;13.20;;;;;;;;;;5069283;28;20304;-75
2024/04/01 08:11:42;;;;;;;21.65;14.85;;;;;;;;;;5061843;28;20191;-75
2024/04/01 08:14:08;;;;;;;21.17;14.27;;;;;;;;;;5087656;28;20204;-75
2024/04/01 08:16:33;;;;;;;19.58;14.57;;;;;;;;;;5084064;28;20200;-75
2024/04/01 08:19:00;;;;;;;25.20;15.27;;;;;;;;;;5072688;28;20711;-75
2024/04/01 08:21:25;;;;;;;22.60;13.70;;;;;;;;;;5063003;28;20189;-75
2024/04/01 08:23:51;;;;;;;19.55;13.85;;;;;;;;;;5067387;28;20212;-75
2024/04/01 08:26:16;;;;;;;24.00;13.57;;;;;;;;;;5076905;28;20177;-75
2024/04/01 08:28:41;;;;;;;22.95;14.18;;;;;;;;;;5073788;28;20214;-75
2024/04/01 08:31:07;;;;;;;18.15;13.50;;;;;;;;;;5079330;28;20188;-76
2024/04/01 08:33:32;;;;;;;23.50;15.05;;;;;;;;;;5075349;28;20184;-76
2024/04/01 08:35:58;;;;;;;22.38;15.10;;;;;;;;;;5078977;28;20196;-76
2024/04/01 08:38:24;;;;;;;18.67;14.90;;;;;;;;;;5071896;28;20224;-76
2024/04/01 08:41:00;;;;;;;17.33;13.93;;;;;;;;;;5077925;28;20190;-76
2024/04/01 08:43:40;;;;;;;18.50;14.15;;;;;;;;;;5058552;28;20215;-76
2024/04/01 08:46:06;;;;;;;19.10;14.98;;;;;;;;;;5082496;28;20192;-75
2024/04/01 08:48:32;;;;;;;20.80;14.07;;;;;;;;;;5084456;28;20237;-76
2024/04/01 08:51:05;;;;;;;21.25;13.90;;;;;;;;;;5079828;28;20191;-75
2024/04/01 08:54:00;;;;;;;18.52;13.82;;;;;;;;;;5071029;28;20279;-75
2024/04/01 08:56:27;;;;;;;16.70;11.90;;;;;;;;;;5073817;28;20185;-75
2024/04/01 08:58:52;;;;;;;20.15;13.25;;;;;;;;;;5078792;28;20761;-75
2024/04/01 09:01:18;;;;;;;16.38;11.98;;;;;;;;;;5082067;28;20192;-75
2024/04/01 09:03:46;;;;;;;18.35;12.38;;;;;;;;;;5073983;28;20209;-74
2024/04/01 09:06:11;;;;;;;16.08;11.23;;;;;;;;;;5085519;28;20281;-75
2024/04/01 09:08:37;;;;;;;17.75;11.18;;;;;;;;;;5080894;28;20237;-75
2024/04/01 09:11:03;;;;;;;16.88;11.30;;;;;;;;;;5074616;28;20597;-75
2024/04/01 09:13:31;;;;;;;14.70;10.85;;;;;;;;;;5058997;28;20204;-75
2024/04/01 09:15:58;;;;;;;14.70;10.23;;;;;;;;;;5078857;28;20189;-75
2024/04/01 09:18:23;;;;;;;13.10;9.70;;;;;;;;;;5083625;28;20195;-75
2024/04/01 09:20:49;;;;;;;15.23;10.20;;;;;;;;;;5071191;28;20793;-75
2024/04/01 09:23:14;;;;;;;18.25;9.98;;;;;;;;;;5074323;28;20698;-76
2024/04/01 09:25:40;;;;;;;12.40;9.52;;;;;;;;;;5064951;28;20271;-75
2024/04/01 09:28:05;;;;;;;15.32;10.20;;;;;;;;;;5081049;28;20193;-75
2024/04/01 09:30:31;;;;;;;12.40;9.50;;;;;;;;;;5073705;28;20683;-75
2024/04/01 09:32:59;;;;;;;14.63;9.20;;;;;;;;;;5078419;28;20251;-74
2024/04/01 09:35:25;;;;;;;12.80;9.32;;;;;;;;;;5077593;28;20554;-75
2024/04/01 09:37:51;;;;;;;15.93;10.55;;;;;;;;;;5079923;28;20642;-74
2024/04/01 09:40:17;;;;;;;16.30;9.60;;;;;;;;;;5085268;28;20631;-74
2024/04/01 09:42:43;;;;;;;10.52;9.30;;;;;;;;;;5074872;28;20247;-74
2024/04/01 09:45:09;;;;;;;15.45;9.88;;;;;;;;;;5076634;28;20213;-74
2024/04/01 09:47:37;;;;;;;12.82;10.20;;;;;;;;;;5083345;28;20196;-74
2024/04/01 09:50:07;;;;;;;13.25;9.75;;;;;;;;;;5090312;28;20181;-74
2024/04/01 09:52:33;;;;;;;15.23;10.43;;;;;;;;;;5083562;28;20191;-74
2024/04/01 09:55:13;;;;;;;13.32;10.38;;;;;;;;;;5085854;28;20260;-74
2024/04/01 09:57:45;;;;;;;15.35;10.32;;;;;;;;;;5085169;28;20194;-74
2024/04/01 10:00:17;;;;;;;14.07;10.77;;;;;;;;;;5078436;28;20269;-74
2024/04/01 10:03:03;;;;;;;12.80;10.98;;;;;;;;;;5078190;28;20224;-73
2024/04/01 10:05:47;;;;;;;12.65;11.30;;;;;;;;;;5076172;28;20200;-73
2024/04/01 10:08:43;;;;;;;14.63;11.57;;;;;;;;;;5079021;28;20625;-73
2024/04/01 10:11:47;;;;;;;15.52;11.27;;;;;;;;;;5081344;28;20326;-73
2024/04/01 10:14:24;;;;;;;17.75;12.10;;;;;;;;;;5081580;28;20265;-73
2024/04/01 10:17:30;;;;;;;17.95;12.73;;;;;;;;;;5080190;28;20187;-74
2024/04/01 10:20:13;;;;;;;16.35;12.93;;;;;;;;;;5086860;28;20246;-74
2024/04/01 10:23:15;;;;;;;16.45;13.48;;;;;;;;;;5081029;28;20585;-74
2024/04/01 10:26:05;;;;;;;16.45;13.35;;;;;;;;;;5088727;28;20240;-74
2024/04/01 10:29:16;;;;;;;17.98;12.63;;;;;;;;;;5085310;28;20555;-75
2024/04/01 10:32:42;;;;;;;15.00;11.63;;;;;;;;;;5083770;28;20404;-74
2024/04/01 10:35:38;;;;;;;14.02;12.23;;;;;;;;;;5028189;28;20256;-74
2024/04/01 10:38:45;;;;;;;13.18;11.00;;;;;;;;;;5069557;28;20300;-74
2024/04/01 10:41:16;;;;;;;15.00;11.20;;;;;;;;;;5085761;28;20188;-74
2024/04/01 10:44:24;;;;;;;13.35;11.45;;;;;;;;;;5083131;28;20216;-74
2024/04/01 10:47:38;;;;;;;13.75;11.63;;;;;;;;;;5090275;28;20262;-73
2024/04/01 10:50:46;;;;;;;15.10;12.85;;;;;;;;;;5018803;28;20309;-73
2024/04/01 10:53:17;;;;;;;19.20;12.98;;;;;;;;;;5088661;28;20182;-72
2024/04/01 10:56:21;;;;;;;17.02;13.38;;;;;;;;;;5084822;28;20718;-72
2024/04/01 10:58:49;;;;;;;18.02;14.30;;;;;;;;;;5081988;28;20611;-73
2024/04/01 11:01:39;;;;;;;17.42;14.65;;;;;;;;;;5082705;28;20679;-74
2024/04/01 11:04:19;;;;;;;16.67;14.00;;;;;;;;;;5085764;28;20188;-72
2024/04/01 11:07:07;;;;;;;17.58;13.88;;;;;;;;;;5079334;28;20184;-72
2024/04/01 11:10:08;;;;;;;15.88;13.18;;;;;;;;;;5085079;28;20508;-71
2024/04/01 11:12:34;;;;;;;15.25;13.13;;;;;;;;;;5074104;28;20184;-72
2024/04/01 11:15:04;;;;;;;15.27;12.88;;;;;;;;;;5086343;28;20188;-72
2024/04/01 11:17:31;;;;;;;14.40;12.88;;;;;;;;;;5087488;28;20800;-72
2024/04/01 11:20:19;;;;;;;14.95;13.35;;;;;;;;;;5088023;28;20283;-71
2024/04/01 11:23:10;;;;;;;13.98;12.45;;;;;;;;;;5083505;28;20216;-72
2024/04/01 11:25:36;;;;;;;13.77;12.35;;;;;;;;;;5056138;28;20211;-72
2024/04/01 11:28:10;;;;;;;16.73;13.13;;;;;;;;;;5088690;28;20206;-72
2024/04/01 11:30:36;;;;;;;14.25;12.75;;;;;;;;;;5081776;28;20195;-72
2024/04/01 11:33:08;;;;;;;13.88;12.45;;;;;;;;;;5082995;28;20556;-73
2024/04/01 11:35:37;;;;;;;14.50;12.98;;;;;;;;;;5069116;28;20227;-72
2024/04/01 11:38:34;;;;;;;14.90;12.25;;;;;;;;;;5078858;28;20232;-71
2024/04/01 11:41:04;;;;;;;13.00;11.40;;;;;;;;;;5064509;28;20425;-72
2024/04/01 11:43:32;;;;;;;12.82;11.48;;;;;;;;;;5078101;28;20516;-71
2024/04/01 11:45:59;;;;;;;12.30;10.90;;;;;;;;;;5083743;28;20188;-71
2024/04/01 11:48:26;;;;;;;12.60;11.32;;;;;;;;;;5084149;28;20200;-73
2024/04/01 11:50:54;;;;;;;15.35;12.13;;;;;;;;;;5085595;28;20200;-72
2024/04/01 11:53:21;;;;;;;14.63;11.30;;;;;;;;;;5075866;28;20756;-72
2024/04/01 11:56:00;;;;;;;12.95;11.65;;;;;;;;;;5080765;28;20674;-73
2024/04/01 11:58:26;;;;;;;13.60;11.95;;;;;;;;;;5082124;28;20186;-73
2024/04/01 12:01:01;;;;;;;13.25;11.93;;;;;;;;;;5083191;28;20264;-72
2024/04/01 12:03:46;;;;;;;13.18;11.88;;;;;;;;;;5073260;28;20207;-72
2024/04/01 12:06:16;;;;;;;13.27;11.55;;;;;;;;;;5076297;28;20469;-72
2024/04/01 12:08:42;;;;;;;13.43;12.00;;;;;;;;;;5071261;28;20416;-73
2024/04/01 12:11:08;;;;;;;15.63;12.70;;;;;;;;;;5080342;28;20234;-72
2024/04/01 12:13:39;;;;;;;15.52;13.57;;;;;;;;;;5080031;28;20414;-72
2024/04/01 12:16:07;;;;;;;14.90;12.50;;;;;;;;;;5075605;28;20649;-72
2024/04/01 12:18:42;;;;;;;14.45;13.02;;;;;;;;;;5081848;28;20215;-72
2024/04/01 12:21:09;;;;;;;14.57;12.25;;;;;;;;;;5080236;28;20218;-72
2024/04/01 12:23:37;;;;;;;16.20;12.93;;;;;;;;;;5076702;28;20682;-71
2024/04/01 12:26:09;;;;;;;13.95;12.55;;;;;;;;;;5082600;28;20192;-72
2024/04/01 12:28:36;;;;;;;14.48;12.57;;;;;;;;;;5083807;28;20275;-73
2024/04/01 12:31:02;;;;;;;14.45;12.95;;;;;;;;;;5079243;28;20188;-72
2024/04/01 12:33:30;;;;;;;13.23;11.93;;;;;;;;;;5082839;28;20553;-72
2024/04/01 12:35:56;;;;;;;15.45;12.57;;;;;;;;;;5082329;28;20198;-72
2024/04/01 12:38:23;;;;;;;14.52;11.60;;;;;;;;;;5071459;28;20559;-72
2024/04/01 12:40:52;;;;;;;13.27;11.88;;;;;;;;;;5086218;28;20184;-71
2024/04/01 12:43:21;;;;;;;12.63;11.10;;;;;;;;;;5078276;28;20204;-71
2024/04/01 12:45:50;;;;;;;14.48;11.88;;;;;;;;;;5079551;28;20195;-71
2024/04/01 12:48:17;;;;;;;13.95;11.93;;;;;;;;;;5088578;28;20188;-72
2024/04/01 12:50:45;;;;;;;12.32;10.00;;;;;;;;;;5073640;28;20554;-72
2024/04/01 12:53:44;;;;;;;10.73;8.60;;;;;;;;;;5082927;28;20181;-71
2024/04/01 12:56:42;;;;;;;12.55;8.27;;;;;;;;;;5079809;28;20199;-72
2024/04/01 12:59:22;;;;;;;10.40;7.07;;;;;;;;;;5082002;28;20180;-72
2024/04/01 13:02:07;;;;;;;8.20;5.88;;;;;;;;;;5083664;28;20202;-71
2024/04/01 13:04:41;;;;;;;6.70;5.85;;;;;;;;;;5077807;28;20180;-71
2024/04/01 13:07:24;;;;;;;7.45;5.70;;;;;;;;;;5079596;28;20194;-71
2024/04/01 13:10:07;;;;;;;8.02;5.45;;;;;;;;;;5076467;28;20184;-71
2024/04/01 13:12:50;;;;;;;7.57;6.00;;;;;;;;;;5080032;28;20239;-71
2024/04/01 13:15:16;;;;;;;8.05;6.20;;;;;;;;;;5074722;28;20184;-71
2024/04/01 13:17:56;;;;;;;7.35;5.53;;;;;;;;;;5076236;28;20188;-71
2024/04/01 13:20:31;;;;;;;6.60;5.60;;;;;;;;;;5067456;28;20265;-71
2024/04/01 13:23:09;;;;;;;7.28;5.55;;;;;;;;;;5080654;28;20315;-71
2024/04/01 13:25:57;;;;;;;7.60;4.95;;;;;;;;;;5079885;28;20192;-72
2024/04/01 13:28:50;;;;;;;7.43;5.78;;;;;;;;;;5075541;28;20223;-72
2024/04/01 13:31:31;;;;;;;7.25;5.50;;;;;;;;;;5081541;28;20249;-71
2024/04/01 13:34:31;;;;;;;10.02;5.97;;;;;;;;;;5081152;28;20176;-71
2024/04/01 13:36:56;;;;;;;7.15;5.85;;;;;;;;;;5080262;28;20191;-72
2024/04/01 13:39:59;;;;;;;9.60;6.55;;;;;;;;;;5073583;28;20223;-72
2024/04/01 13:42:52;;;;;;;9.60;6.43;;;;;;;;;;5083379;28;20639;-71
2024/04/01 13:45:49;;;;;;;7.90;6.40;;;;;;;;;;5077436;28;20188;-71
2024/04/01 13:48:39;;;;;;;9.80;6.20;;;;;;;;;;5058506;28;20834;-71
2024/04/01 13:51:23;;;;;;;9.40;6.20;;;;;;;;;;5083361;28;20611;-70
2024/04/01 13:54:06;;;;;;;8.93;6.05;;;;;;;;;;5086104;28;20188;-70
2024/04/01 13:56:54;;;;;;;7.47;5.00;;;;;;;;;;5079879;28;20188;-70
2024/04/01 13:59:34;;;;;;;9.32;5.50;;;;;;;;;;5102508;28;20626;-70
2024/04/01 14:02:52;;;;;;;5.55;4.18;;;;;;;;;;5079505;28;20263;-70
2024/04/01 14:05:46;;;;;;;6.22;4.25;;;;;;;;;;5044319;28;20197;-70
2024/04/01 14:08:22;;;;;;;6.65;3.83;;;;;;;;;;5078830;28;20202;-70
2024/04/01 14:11:03;;;;;;;8.60;4.15;;;;;;;;;;5078856;28;20183;-71
2024/04/01 14:13:44;;;;;;;6.13;3.38;;;;;;;;;;5069665;28;20264;-69
2024/04/01 14:16:24;;;;;;;7.43;3.42;;;;;;;;;;5060443;28;20187;-69
2024/04/01 14:18:56;;;;;;;4.65;2.63;;;;;;;;;;5080796;28;20216;-70
2024/04/01 14:21:21;;;;;;;6.07;2.90;;;;;;;;;;5070559;28;20199;-70
2024/04/01 14:23:47;;;;;;;8.73;2.70;;;;;;;;;;5086391;28;20239;-71
2024/04/01 14:26:13;;;;;;;5.00;2.28;;;;;;;;;;5084400;28;20196;-70
2024/04/01 14:28:39;;;;;;;3.58;2.30;;;;;;;;;;5088537;28;20266;-70
2024/04/01 14:31:04;;;;;;;7.72;2.83;;;;;;;;;;5077700;28;20299;-70
2024/04/01 14:33:30;;;;;;;5.18;2.45;;;;;;;;;;5089587;28;20287;-70
2024/04/01 14:35:56;;;;;;;5.60;2.42;;;;;;;;;;5076236;28;20637;-70
2024/04/01 14:38:22;;;;;;;4.47;2.45;;;;;;;;;;5082593;28;20293;-70